Welcome to our Virtual Airline
Sign-in:

Flight MFC37591

  • Submitted By: Igor Doksas
  • Departure Airport: Kodiak (PADQ)
  • Arrival Airport: Port Williams SPB (KPR)
  • Aircraft: DHC2 BEAVERF (N002MM_FL)
  • Flight Time: 00.33.17
  • Date Submitted: 2018/11/20
  • Route: STOP-OVER AT KITOI BAY SPB (KKB)
  • Status: Accepted
Flight Details
Gross Revenue:
(5 load / $ 48.00 per unit
$ 240.00
Fuel Cost:
(38.5554 fuel used @ 5.1 / unit)
$ 196.63

Additional Log Information:

View Log

FS[08:20] ----- Flight Opened -----
FS[08:20] Cigar Box - 1.1.4.0
FS[08:20] FS: FSX
FS[08:20] FSUIPC: v4.966
FS[08:20] Flight Number: MFC37591
FS[08:20] FS Aircraft: DHC-2A Misty Moorings 3 Amph1
FS[08:20] FS Model: DHC2
FS[08:20] FS Type: DeHavilland
FS[08:20] Departure: PADQ
FS[08:20] Arrival: KPR
FS[08:20] Flight Level: 4500
FS[08:20] Flight Type: H
FS[08:20] Passengers: 5
FS[08:20] FOB: 210 lbs
FS[08:20] Gate: n/a
FS[08:20] Crash Detection: Disabled
FS[08:20] Crash Detection Aircraft: Disabled
FS[08:20] Engines: 1 Piston
FS[08:20] NOTE: Boarding has started
FS[08:20] FS: Paused
FS[08:20] Parking Brake: Engaged
FS[08:20] Main Door Closed
FS[08:20] COM1: 128.30
FS[08:20] COM2: 127.80
FS[08:20] Transponder: 1200
FS[08:20] NAV1: 113.70
FS[08:20] NAV2: 110.60
FS[08:20] ADF1: 284.0
FS[08:20] ADF2: 240.0
FS[08:20] Navigation Mode: NAV
FS[08:20] FS: Unpaused
FS[08:20] Engine 1: Started
FS[08:20] Light Data: Beacon ON
FS[08:21] Light Data: Navigation ON
FS[08:21] Light Data: Landing lights ON
FS[08:21] Navigation Mode: GPS
FS[08:21] Flaps: Position 1
FS[08:21] Flaps: Position 2
FS[08:24] Parking Brake: Released
FS[08:24] NOTE: Taxi started
FS[08:26] Parking Brake: Engaged
FS[08:26] Parking Brake: Released
FS[08:26] NOTE: ----- TAKE OFF -----
FS[08:26] GS: 66 knots
FS[08:26] TAS: 67 knots
FS[08:26] IAS: 67 knots
FS[08:26] VS: 4 fpm
FS[08:26] FOB: 208 lbs
FS[08:26] Heading: 59°
FS[08:26] Pitch: 1°
FS[08:26] Bank: 0°
FS[08:26] Aircraft Weight: 3978.41 lbs
FS[08:26] Nearest Airport: PADQ
FS[08:26] Distance: 0.55 miles
FS[08:26] Runway: 7 - PADQ
FS[08:26] Ground Surface: Asphalt
FS[08:26] Ground Condition: Normal
FS[08:26] NOTE: Weather Report
FS[08:26] Wind Heading: 344°
FS[08:26] Wind Speed: 0 knots
FS[08:26] OAT: 14° C
FS[08:26] TAT: 15° C
FS[08:26] Precipitation: None
FS[08:26] Dew Point: 4° C
FS[08:26] Visibility: 62 miles
FS[08:26] METAR: PADQ 201253Z AUTO 28004KT 10SM CLR 00/M02 A2946 RMK AO2 SLP975 T00001022 TSNO
FS[08:26] NOTE: Climb started
FS[08:26] Landing Gear: Retracted
FS[08:26] GS: 75 knots
FS[08:26] TAS: 77 knots
FS[08:26] IAS: 77 knots
FS[08:26] VS: 472 fpm
FS[08:26] AGL: 29 ft
FS[08:26] AMSL: 101 ft
FS[08:26] Flaps: Position 1
FS[08:26] GS: 77 knots
FS[08:26] TAS: 78 knots
FS[08:26] IAS: 78 knots
FS[08:26] VS: 655 fpm
FS[08:26] View Mode: Virtual Cockpit
FS[08:26] Autopilot: Engaged
FS[08:26] AGL: 384 ft
FS[08:26] AMSL: 456 ft
FS[08:27] Flaps: Position 0
FS[08:27] GS: 85 knots
FS[08:27] TAS: 87 knots
FS[08:27] IAS: 86 knots
FS[08:27] VS: 1262 fpm
FS[08:27] Light Data: Landing lights OFF
FS[08:27] AGL: 1213 ft
FS[08:27] AMSL: 1213 ft
FS[08:30] NOTE: TOC reached
FS[08:30] NOTE: Cruise started
FS[08:30] GS: 108 knots
FS[08:30] TAS: 116 knots
FS[08:30] IAS: 109 knots
FS[08:30] VS: 181 fpm
FS[08:30] FOB: 191 lbs
FS[08:30] Heading: 342°
FS[08:30] NOTE: TOC reached
FS[08:30] NOTE: Cruise started
FS[08:30] GS: 108 knots
FS[08:30] TAS: 116 knots
FS[08:30] IAS: 109 knots
FS[08:30] VS: 181 fpm
FS[08:30] FOB: 191 lbs
FS[08:30] Heading: 342°
FS[08:30] Pitch: 1°
FS[08:30] Bank: 0°
FS[08:30] Aircraft Weight: 3961.71 lbs
FS[08:30] Pitch: 1°
FS[08:30] Bank: 0°
FS[08:30] Aircraft Weight: 3961.71 lbs
FS[08:34] NOTE: TOD reached
FS[08:34] NOTE: Descent started
FS[08:34] GS: 147 knots
FS[08:34] TAS: 152 knots
FS[08:34] IAS: 144 knots
FS[08:34] VS: -756 fpm
FS[08:34] FOB: 175 lbs
FS[08:34] Heading: 344°
FS[08:34] Pitch: 3°
FS[08:34] Bank: 0°
FS[08:34] Aircraft Weight: 3945.59 lbs
FS[08:34] NOTE: On approach
FS[08:35] Light Data: Landing lights ON
FS[08:35] AGL: 3159 ft
FS[08:35] AMSL: 3159 ft
FS[08:39] Flaps: Position 1
FS[08:39] GS: 106 knots
FS[08:39] TAS: 108 knots
FS[08:39] IAS: 105 knots
FS[08:39] VS: -579 fpm
FS[08:39] Flaps: Position 2
FS[08:39] GS: 95 knots
FS[08:39] TAS: 96 knots
FS[08:39] IAS: 94 knots
FS[08:39] VS: -728 fpm
FS[08:39] Flaps: Position 3
FS[08:39] GS: 79 knots
FS[08:39] TAS: 80 knots
FS[08:39] IAS: 78 knots
FS[08:39] VS: -336 fpm
FS[08:40] Autopilot: Disengaged
FS[08:40] AGL: 995 ft
FS[08:40] AMSL: 1145 ft
FS[08:41] NOTE: ----- LANDED -----
FS[08:41] Landing Rate: -199.16 fpm
FS[08:41] GS: 52 knots
FS[08:41] TAS: 53 knots
FS[08:41] IAS: 53 knots
FS[08:41] VS: -194 fpm
FS[08:41] FOB: 160 lbs
FS[08:41] Heading: 323°
FS[08:41] Pitch: 1°
FS[08:41] Bank: 0°
FS[08:41] Aircraft Weight: 3929.96 lbs
FS[08:41] Nearest Airport: KKB
FS[08:41] Distance: 0.51 miles
FS[08:41] Runway: ???
FS[08:41] Ground Surface: Water
FS[08:41] Ground Condition: Normal
FS[08:41] NOTE: Weather Report
FS[08:41] Wind Heading: 344°
FS[08:41] Wind Speed: 0 knots
FS[08:41] OAT: 14° C
FS[08:41] TAT: 15° C
FS[08:41] Precipitation: None
FS[08:41] Dew Point: 4° C
FS[08:41] Visibility: 62 miles
FS[08:41] METAR: KPRB 201253Z AUTO 08003KT 5SM HZ CLR 00/M03 A3001 RMK AO2 SLP163 T00001033KPRC 201253Z 19003KT 10SM CLR M01/M11 A3016 RMK AO2 SLP192 T10061111KPRG 201315Z AUTO 30009G15KT 10SM SCT018 OVC038 M02/M04 A3024 RMK AO2 T10161036KPRN 201256Z AUTO 33007KT 4SM -RA BR BKN004 OVC009 13/11 A3015 RMK AO2 RAB20E43B47 SLP208 T01280106 PNOKPRO 201355Z AUTO 24005KT 10SM OVC010 M09/M10 A3030 RMK AO2 T10911101KPRS 201315Z AUTO 12003KT 10SM CLR 08/03 A3027 RMK AO2 T00770034KPRX 201256Z AUTO 33004KT 10SM CLR 00/M01 A3035 RMK AO2 SLP297 T00001006 FZRANO
FS[08:41] View Mode: Virtual Cockpit
FS[08:41] Flaps: Position 0
FS[08:41] NOTE: Taxi started
FS[08:42] Flaps: Position 2
FS[08:42] Flaps: Position 1
FS[08:42] GS: 69 knots
FS[08:42] TAS: 71 knots
FS[08:42] IAS: 72 knots
FS[08:42] VS: 1210 fpm
FS[08:42] View Mode: Virtual Cockpit
FS[08:42] Autopilot: Engaged
FS[08:42] AGL: 232 ft
FS[08:42] AMSL: 232 ft
FS[08:43] Flaps: Position 0
FS[08:43] GS: 87 knots
FS[08:43] TAS: 88 knots
FS[08:43] IAS: 87 knots
FS[08:43] VS: 1164 fpm
FS[08:43] Light Data: Landing lights OFF
FS[08:43] AGL: 807 ft
FS[08:43] AMSL: 1535 ft
FS[08:47] Recovery: Flight Saved
FS[08:49] Light Data: Landing lights ON
FS[08:49] AGL: 1932 ft
FS[08:49] AMSL: 1932 ft
FS[08:49] Flaps: Position 1
FS[08:49] GS: 110 knots
FS[08:49] TAS: 112 knots
FS[08:49] IAS: 109 knots
FS[08:49] VS: -419 fpm
FS[08:49] Flaps: Position 2
FS[08:49] GS: 99 knots
FS[08:49] TAS: 99 knots
FS[08:49] IAS: 97 knots
FS[08:49] VS: 302 fpm
FS[08:49] Flaps: Position 3
FS[08:49] GS: 81 knots
FS[08:49] TAS: 82 knots
FS[08:49] IAS: 80 knots
FS[08:49] VS: 359 fpm
FS[08:51] Autopilot: Disengaged
FS[08:51] AGL: 252 ft
FS[08:51] AMSL: 252 ft
FS[08:52] NOTE: ----- LANDED -----
FS[08:52] Landing Rate: -86.12 fpm
FS[08:52] GS: 50 knots
FS[08:52] TAS: 50 knots
FS[08:52] IAS: 50 knots
FS[08:52] VS: -81 fpm
FS[08:52] FOB: 128 lbs
FS[08:52] Heading: 323°
FS[08:52] Pitch: 3°
FS[08:52] Bank: 0°
FS[08:52] Aircraft Weight: 3898.26 lbs
FS[08:52] Nearest Airport: KPR
FS[08:52] Distance: 1.46 miles
FS[08:52] Runway: ???
FS[08:52] Ground Surface: Water
FS[08:52] Ground Condition: Normal
FS[08:52] NOTE: Weather Report
FS[08:52] Wind Heading: 344°
FS[08:52] Wind Speed: 0 knots
FS[08:52] OAT: 14° C
FS[08:52] TAT: 15° C
FS[08:52] Precipitation: None
FS[08:52] Dew Point: 4° C
FS[08:52] Visibility: 62 miles
FS[08:52] METAR: KPRB 201253Z AUTO 08003KT 5SM HZ CLR 00/M03 A3001 RMK AO2 SLP163 T00001033KPRC 201253Z 19003KT 10SM CLR M01/M11 A3016 RMK AO2 SLP192 T10061111KPRG 201315Z AUTO 30009G15KT 10SM SCT018 OVC038 M02/M04 A3024 RMK AO2 T10161036KPRN 201256Z AUTO 33007KT 4SM -RA BR BKN004 OVC009 13/11 A3015 RMK AO2 RAB20E43B47 SLP208 T01280106 PNOKPRO 201355Z AUTO 24005KT 10SM OVC010 M09/M10 A3030 RMK AO2 T10911101KPRS 201315Z AUTO 12003KT 10SM CLR 08/03 A3027 RMK AO2 T00770034KPRX 201256Z AUTO 33004KT 10SM CLR 00/M01 A3035 RMK AO2 SLP297 T00001006 FZRANO
FS[08:52] View Mode: Virtual Cockpit
FS[08:52] Flaps: Position 0
FS[08:56] Light Data: Landing lights OFF
FS[08:56] Light Data: Navigation OFF
FS[08:56] Engine 1: Stopped
FS[08:56] Engine 1: Started
FS[08:56] Engine 1: Stopped
FS[08:56] Main Door Open
FS[08:56] Light Data: Beacon OFF
FS[08:56] NOTE: Arrived
FS[08:56] Parking Brake: Engaged
FS[08:57] Gate: n/a
FS[08:57] NOTE: Flight Completed
FS[08:57] FS Aircraft: DHC-2A Misty Moorings 3 Amph1
FS[08:57] FS Model: DHC2
FS[08:57] FS Type: DeHavilland
FS[08:57] FOB: 125 lbs
FS[08:57] Fuel Used: 85 lbs
FS[08:57] Flight Time: 00:33:17
FS[08:57] Flight Time (Dawn): 00:20:22
FS[08:57] Flight Time (Day): 00:12:55
FS[08:57] Flight Time (Dusk): 00:00:00
FS[08:57] Flight Time (Night): 00:00:00
FS[08:57] Total Landings: 2
FS[08:57] MaxSim Rate: 0x
FS[08:57] Cigar Box - 1.1.4.0
FS[08:57] ----- Flight Closed -----

Comments

Commenter Comment
Norm Richards WElcome back Igor... Just to let you know, there is over 70 RTMM based flights that you can fly.. They are in your Pilot center under View Flight Schedules.. and you just push FIND and all will appear.. and you can simply bid on them if you want. Norm
Igor Doksas Great news Norm and thank you for this :) PS In my country next 2 months is time for ortodox celebration every few days, but after this i will back on full gas :)

Route Map